createdAt,value
2022-10-17T00:02:15.227Z,2.55
2022-10-17T00:04:41.742Z,2.53
2022-10-17T00:07:08.163Z,2.50
2022-10-17T00:09:34.618Z,2.40
2022-10-17T00:12:02.614Z,2.60
2022-10-17T00:14:29.052Z,2.60
2022-10-17T00:16:55.485Z,2.38
2022-10-17T00:19:21.914Z,2.22
2022-10-17T00:21:49.359Z,2.75
2022-10-17T00:24:15.782Z,2.42
2022-10-17T00:26:42.281Z,2.45
2022-10-17T00:29:08.938Z,2.53
2022-10-17T00:31:35.743Z,2.35
2022-10-17T00:34:02.242Z,2.55
2022-10-17T00:36:29.538Z,2.80
2022-10-17T00:38:58.933Z,2.70
2022-10-17T00:41:29.070Z,2.60
2022-10-17T00:44:01.693Z,2.10
2022-10-17T00:46:31.369Z,2.50
2022-10-17T00:49:00.881Z,2.53
2022-10-17T00:51:39.690Z,2.33
2022-10-17T00:54:06.850Z,2.50
2022-10-17T00:56:33.960Z,2.20
2022-10-17T00:59:00.689Z,2.60
2022-10-17T01:01:27.287Z,2.75
2022-10-17T01:03:53.850Z,2.30
2022-10-17T01:06:20.261Z,2.20
2022-10-17T01:08:46.919Z,2.38
2022-10-17T01:11:19.065Z,2.15
2022-10-17T01:14:09.044Z,2.45
2022-10-17T01:16:45.760Z,2.35
2022-10-17T01:19:44.540Z,2.67
2022-10-17T01:22:25.739Z,2.47
2022-10-17T01:25:12.664Z,2.30
2022-10-17T01:28:15.405Z,2.35
2022-10-17T01:31:03.030Z,2.60
2022-10-17T01:33:37.094Z,2.75
2022-10-17T01:36:32.604Z,2.65
2022-10-17T01:39:06.342Z,2.20
2022-10-17T01:42:03.012Z,2.45
2022-10-17T01:44:37.795Z,2.50
2022-10-17T01:47:13.509Z,2.65
2022-10-17T01:49:44.031Z,2.50
2022-10-17T01:52:27.486Z,2.58
2022-10-17T01:54:57.191Z,2.45
2022-10-17T01:57:44.082Z,2.47
2022-10-17T02:11:06.151Z,2.63
2022-10-17T02:13:46.295Z,2.05
2022-10-17T02:16:21.929Z,2.58
2022-10-17T02:18:51.339Z,2.05
2022-10-17T02:21:28.330Z,2.10
2022-10-17T02:24:01.174Z,2.33
2022-10-17T02:26:34.212Z,2.00
2022-10-17T02:29:03.664Z,2.25
2022-10-17T02:31:38.582Z,2.20
2022-10-17T02:34:43.331Z,1.83
2022-10-17T02:37:13.665Z,2.22
2022-10-17T02:39:42.918Z,2.13
2022-10-17T02:42:11.889Z,2.45
2022-10-17T02:44:42.358Z,2.13
2022-10-17T02:47:21.930Z,2.25
2022-10-17T02:49:52.643Z,2.72
2022-10-17T02:52:23.967Z,2.97
2022-10-17T02:54:59.928Z,2.42
2022-10-17T02:57:39.303Z,2.30
2022-10-17T03:00:10.063Z,2.40
2022-10-17T03:02:55.034Z,2.15
2022-10-17T03:05:23.853Z,4.07
2022-10-17T03:07:55.912Z,3.50
2022-10-17T03:10:23.095Z,2.10
2022-10-17T03:12:49.514Z,2.35
2022-10-17T03:15:16.043Z,2.03
2022-10-17T03:17:42.712Z,1.95
2022-10-17T03:20:09.693Z,2.00
2022-10-17T03:22:36.574Z,1.67
2022-10-17T03:25:05.414Z,1.73
2022-10-17T03:27:34.660Z,1.85
2022-10-17T03:30:01.089Z,2.40
2022-10-17T03:32:27.562Z,2.20
2022-10-17T03:34:53.992Z,2.20
2022-10-17T03:37:20.382Z,2.03
2022-10-17T03:39:46.787Z,2.40
2022-10-17T03:42:13.218Z,2.95
2022-10-17T03:44:39.617Z,3.03
2022-10-17T03:47:08.161Z,4.47
2022-10-17T03:49:36.936Z,3.38
2022-10-17T03:52:03.655Z,2.53
2022-10-17T03:54:30.177Z,2.38
2022-10-17T03:59:24.377Z,3.00
2022-10-17T04:01:50.832Z,2.75
2022-10-17T04:04:17.240Z,2.92
2022-10-17T04:06:43.659Z,2.72
2022-10-17T04:09:11.001Z,2.70
2022-10-17T04:11:37.525Z,5.68
2022-10-17T04:14:04.074Z,4.50
2022-10-17T04:16:30.571Z,3.30
2022-10-17T04:18:59.201Z,3.83
2022-10-17T04:21:27.508Z,3.25
2022-10-17T04:23:55.240Z,2.97
2022-10-17T04:26:22.112Z,2.90
2022-10-17T04:28:48.684Z,2.60
2022-10-17T04:31:15.950Z,2.72
2022-10-17T04:33:42.665Z,2.55
2022-10-17T04:36:16.893Z,2.42
2022-10-17T04:38:43.450Z,2.38
2022-10-17T04:41:15.323Z,2.20
2022-10-17T04:43:44.418Z,2.30
2022-10-17T04:46:15.194Z,2.65
2022-10-17T04:48:42.468Z,2.88
2022-10-17T04:51:12.815Z,2.55
2022-10-17T04:53:42.518Z,2.55
2022-10-17T04:56:15.401Z,2.40
2022-10-17T04:58:43.106Z,2.35
2022-10-17T05:01:12.746Z,2.30
2022-10-17T05:03:39.677Z,2.55
2022-10-17T05:06:11.436Z,2.65
2022-10-17T05:08:38.293Z,2.75
2022-10-17T05:11:05.957Z,2.47
2022-10-17T05:13:33.752Z,2.47
2022-10-17T05:16:01.237Z,2.40
2022-10-17T05:18:28.756Z,2.30
2022-10-17T05:20:55.489Z,2.72
2022-10-17T05:23:21.971Z,9.77
2022-10-17T05:25:48.365Z,2.42
2022-10-17T05:28:14.789Z,2.60
2022-10-17T05:30:41.207Z,2.40
2022-10-17T05:33:07.656Z,2.80
2022-10-17T05:35:34.081Z,2.67
2022-10-17T05:38:00.616Z,2.95
2022-10-17T05:40:27.353Z,2.90
2022-10-17T05:42:53.898Z,2.92
2022-10-17T05:45:20.365Z,2.22
2022-10-17T05:47:46.831Z,2.08
2022-10-17T05:50:13.310Z,2.17
2022-10-17T05:52:40.552Z,2.25
2022-10-17T05:55:09.031Z,2.15
2022-10-17T05:57:35.667Z,2.65
2022-10-17T06:00:02.232Z,2.70
2022-10-17T06:02:29.089Z,2.20
2022-10-17T06:04:55.796Z,2.90
2022-10-17T06:07:22.264Z,2.95
2022-10-17T06:09:48.696Z,3.10
2022-10-17T06:12:15.145Z,3.97
2022-10-17T06:14:41.584Z,4.75
2022-10-17T06:17:12.143Z,6.97
2022-10-17T06:19:41.495Z,7.20
2022-10-17T06:22:07.992Z,3.65
2022-10-17T06:24:34.395Z,3.30
2022-10-17T06:27:00.857Z,4.53
2022-10-17T06:29:27.278Z,3.55
2022-10-17T06:31:54.408Z,3.10
2022-10-17T06:34:21.138Z,3.20
2022-10-17T06:36:48.275Z,2.70
2022-10-17T06:39:15.062Z,2.80
2022-10-17T06:41:41.677Z,2.50
2022-10-17T06:44:11.224Z,2.78
2022-10-17T06:46:41.041Z,2.90
2022-10-17T06:49:07.792Z,2.78
2022-10-17T06:51:37.915Z,2.20
2022-10-17T06:54:04.916Z,2.00
2022-10-17T06:56:31.321Z,2.15
2022-10-17T06:58:57.755Z,2.30
2022-10-17T07:01:24.217Z,2.80
2022-10-17T07:03:50.678Z,1.90
2022-10-17T07:06:17.983Z,1.92
2022-10-17T07:08:45.632Z,2.22
2022-10-17T07:11:14.500Z,2.25
2022-10-17T07:13:41.770Z,2.45
2022-10-17T07:16:08.489Z,2.22
2022-10-17T07:18:35.080Z,2.20
2022-10-17T07:21:01.849Z,2.28
2022-10-17T07:23:28.372Z,2.25
2022-10-17T07:26:03.557Z,4.03
2022-10-17T07:28:30.115Z,3.28
2022-10-17T07:30:56.514Z,2.20
2022-10-17T07:33:24.846Z,2.72
2022-10-17T07:35:52.772Z,2.58
2022-10-17T07:38:19.213Z,3.70
2022-10-17T07:40:45.690Z,2.78
2022-10-17T07:43:12.133Z,2.83
2022-10-17T07:45:38.650Z,2.65
2022-10-17T07:48:05.364Z,1.88
2022-10-17T07:50:33.147Z,2.00
2022-10-17T07:55:25.845Z,2.13
2022-10-17T07:57:52.348Z,2.33
2022-10-17T08:00:18.805Z,2.35
2022-10-17T08:02:45.220Z,2.35
2022-10-17T08:05:11.669Z,2.50
2022-10-17T08:07:39.008Z,2.53
2022-10-17T08:10:06.010Z,3.72
2022-10-17T08:12:34.362Z,5.00
2022-10-17T08:15:01.381Z,2.78
2022-10-17T08:17:27.978Z,2.92
2022-10-17T08:19:54.381Z,2.85
2022-10-17T08:22:20.798Z,2.50
2022-10-17T08:24:47.468Z,2.20
2022-10-17T08:27:14.128Z,2.30
2022-10-17T08:29:40.883Z,2.00
2022-10-17T08:32:09.934Z,1.75
2022-10-17T08:34:37.814Z,1.90
2022-10-17T08:37:07.035Z,3.83
2022-10-17T08:39:33.475Z,2.30
2022-10-17T08:42:05.638Z,3.05
2022-10-17T08:45:13.790Z,2.00
2022-10-17T08:47:45.156Z,1.73
2022-10-17T08:50:20.835Z,2.42
2022-10-17T08:52:53.810Z,1.90
2022-10-17T08:55:45.853Z,1.73
2022-10-17T08:58:44.822Z,2.03
2022-10-17T09:01:20.355Z,2.47
2022-10-17T09:04:15.200Z,2.55
2022-10-17T09:06:54.861Z,2.13
2022-10-17T09:09:58.579Z,1.90
2022-10-17T09:12:46.705Z,2.42
2022-10-17T09:15:41.529Z,1.90
2022-10-17T09:18:22.235Z,1.80
2022-10-17T09:20:57.941Z,1.88
2022-10-17T09:23:30.120Z,1.80
2022-10-17T09:25:59.927Z,2.20
2022-10-17T09:28:36.076Z,1.88
2022-10-17T09:31:11.696Z,1.90
2022-10-17T09:33:56.640Z,1.88
2022-10-17T09:36:28.649Z,1.90
2022-10-17T09:39:14.712Z,2.08
2022-10-17T09:41:49.530Z,1.90
2022-10-17T09:44:18.311Z,1.90
2022-10-17T09:46:57.034Z,1.95
2022-10-17T09:49:31.990Z,2.00
2022-10-17T09:51:59.927Z,1.70
2022-10-17T09:54:40.293Z,1.63
2022-10-17T09:57:10.315Z,2.00
2022-10-17T09:59:39.647Z,1.77
2022-10-17T10:02:14.332Z,1.83
2022-10-17T10:05:04.342Z,2.13
2022-10-17T10:07:38.128Z,2.00
2022-10-17T10:10:08.076Z,2.10
2022-10-17T10:12:38.234Z,2.10
2022-10-17T10:15:32.099Z,1.77
2022-10-17T10:17:58.537Z,2.13
2022-10-17T10:20:31.756Z,2.10
2022-10-17T10:23:05.058Z,1.85
2022-10-17T10:25:31.518Z,2.40
2022-10-17T10:28:00.668Z,1.88
2022-10-17T10:30:32.059Z,2.72
2022-10-17T10:33:01.700Z,2.22
2022-10-17T10:35:34.534Z,2.50
2022-10-17T10:38:03.994Z,2.20
2022-10-17T10:40:45.119Z,2.40
2022-10-17T10:43:23.375Z,6.82
2022-10-17T10:45:51.209Z,2.22
2022-10-17T10:50:52.685Z,2.50
2022-10-17T10:53:30.771Z,2.70
2022-10-17T10:56:27.119Z,2.92
2022-10-17T10:58:56.929Z,2.53
2022-10-17T11:01:39.527Z,2.67
2022-10-17T11:04:21.655Z,2.40
2022-10-17T11:06:52.551Z,2.20
2022-10-17T11:09:45.099Z,2.95
2022-10-17T11:12:20.761Z,2.40
2022-10-17T11:15:09.534Z,2.63
2022-10-17T11:17:39.222Z,2.78
2022-10-17T11:20:08.626Z,2.67
2022-10-17T11:22:57.487Z,2.80
2022-10-17T11:25:40.841Z,2.80
2022-10-17T11:28:16.369Z,2.50
2022-10-17T11:31:03.311Z,2.90
2022-10-17T11:34:04.714Z,2.70
2022-10-17T11:36:41.928Z,3.60
2022-10-17T11:39:17.001Z,3.08
2022-10-17T11:41:51.909Z,2.97
2022-10-17T11:44:39.232Z,2.72
2022-10-17T11:47:39.953Z,3.05
2022-10-17T11:53:31.261Z,3.08
2022-10-17T11:56:00.723Z,2.83
2022-10-17T11:58:49.034Z,2.97
2022-10-17T12:01:31.807Z,3.47
2022-10-17T12:04:16.909Z,2.92
2022-10-17T12:07:05.534Z,3.13
2022-10-17T12:09:46.114Z,2.83
2022-10-17T12:14:50.694Z,3.50
2022-10-17T12:17:32.836Z,3.10
2022-10-17T12:20:23.411Z,3.20
2022-10-17T12:22:53.118Z,3.60
2022-10-17T12:25:21.565Z,2.85
2022-10-17T12:27:50.067Z,2.60
2022-10-17T12:30:25.944Z,3.22
2022-10-17T12:33:18.982Z,2.40
2022-10-17T12:35:45.395Z,2.28
2022-10-17T12:38:15.199Z,2.45
2022-10-17T12:40:46.301Z,2.38
2022-10-17T12:43:15.285Z,2.33
2022-10-17T12:45:53.806Z,2.85
2022-10-17T12:48:38.587Z,2.70
2022-10-17T12:56:37.965Z,2.50
2022-10-17T12:59:13.576Z,2.45
2022-10-17T13:01:43.635Z,2.67
2022-10-17T13:04:10.798Z,2.35
2022-10-17T13:06:44.882Z,3.63
2022-10-17T13:09:38.341Z,2.40
2022-10-17T13:17:07.554Z,2.97
2022-10-17T13:19:45.082Z,2.50
2022-10-17T13:22:20.760Z,2.63
2022-10-17T13:24:48.684Z,2.75
2022-10-17T13:29:58.266Z,2.80
2022-10-17T13:32:34.474Z,2.58
2022-10-17T13:35:17.168Z,2.22
2022-10-17T13:37:49.183Z,2.40
2022-10-17T13:40:40.777Z,2.45
2022-10-17T13:43:17.373Z,2.42
2022-10-17T13:45:51.184Z,2.53
2022-10-17T13:48:21.872Z,2.28
2022-10-17T13:50:52.378Z,2.65
2022-10-17T13:53:25.220Z,3.03
2022-10-17T13:56:22.931Z,2.42
2022-10-17T13:58:49.677Z,2.40
2022-10-17T14:01:18.314Z,2.75
2022-10-17T14:03:48.957Z,2.60
2022-10-17T14:06:30.903Z,2.50
2022-10-17T14:09:06.254Z,2.00
2022-10-17T14:11:37.774Z,2.58
2022-10-17T14:14:07.627Z,4.00
2022-10-17T14:16:38.602Z,2.22
2022-10-17T14:19:06.773Z,2.35
2022-10-17T14:21:43.407Z,2.70
2022-10-17T14:24:28.323Z,2.60
2022-10-17T14:26:58.917Z,2.45
2022-10-17T14:29:31.509Z,2.60
2022-10-17T14:32:08.555Z,2.40
2022-10-17T14:34:37.926Z,2.78
2022-10-17T14:37:31.091Z,2.17
2022-10-17T14:42:28.506Z,2.85
2022-10-17T14:45:03.684Z,2.30
2022-10-17T14:47:42.770Z,2.50
2022-10-17T14:50:12.709Z,2.70
2022-10-17T14:52:40.768Z,2.90
2022-10-17T14:55:28.054Z,2.30
2022-10-17T14:57:54.551Z,2.35
2022-10-17T15:00:22.687Z,2.72
2022-10-17T15:02:50.635Z,2.33
2022-10-17T15:05:18.030Z,2.33
2022-10-17T15:07:44.559Z,2.63
2022-10-17T15:10:23.186Z,2.97
2022-10-17T15:12:58.748Z,2.88
2022-10-17T15:15:28.033Z,2.75
2022-10-17T15:17:54.544Z,2.70
2022-10-17T15:20:25.897Z,2.90
2022-10-17T15:22:53.605Z,2.53
2022-10-17T15:25:20.520Z,2.60
2022-10-17T15:27:46.937Z,2.67
2022-10-17T15:30:21.690Z,2.55
2022-10-17T15:32:49.463Z,2.83
2022-10-17T15:35:16.825Z,2.63
2022-10-17T15:37:43.979Z,3.50
2022-10-17T15:40:16.446Z,3.60
2022-10-17T15:42:42.980Z,3.03
2022-10-17T15:45:15.798Z,3.33
2022-10-17T15:47:49.213Z,3.53
2022-10-17T15:50:17.288Z,3.72
2022-10-17T15:52:44.158Z,5.38
2022-10-17T15:55:10.842Z,3.42
2022-10-17T15:57:40.536Z,3.30
2022-10-17T16:00:16.671Z,2.85
2022-10-17T16:02:43.466Z,3.22
2022-10-17T16:05:29.116Z,4.00
2022-10-17T16:07:57.447Z,3.60
2022-10-17T16:10:25.444Z,3.40
2022-10-17T16:15:27.926Z,3.70
2022-10-17T16:17:56.516Z,3.00
2022-10-17T16:20:24.366Z,3.47
2022-10-17T16:22:51.340Z,4.97
2022-10-17T16:25:25.295Z,5.45
2022-10-17T16:27:53.955Z,4.18
2022-10-17T16:32:54.294Z,3.08
2022-10-17T16:35:33.160Z,3.28
2022-10-17T16:38:03.310Z,4.55
2022-10-17T16:40:29.759Z,4.05
2022-10-17T16:42:56.197Z,6.15
2022-10-17T16:45:23.264Z,3.85
2022-10-17T16:47:50.662Z,3.95
2022-10-17T16:50:17.358Z,3.42
2022-10-17T16:52:43.792Z,3.38
2022-10-17T16:55:10.474Z,4.15
2022-10-17T16:57:36.971Z,3.63
2022-10-17T17:00:06.072Z,2.67
2022-10-17T17:02:32.744Z,3.75
2022-10-17T17:04:59.385Z,3.40
2022-10-17T17:07:29.363Z,4.07
2022-10-17T17:09:56.302Z,4.10
2022-10-17T17:12:22.970Z,3.95
2022-10-17T17:14:49.367Z,3.67
2022-10-17T17:17:24.646Z,3.60
2022-10-17T17:20:02.613Z,3.75
2022-10-17T17:22:29.184Z,4.40
2022-10-17T17:24:55.621Z,5.50
2022-10-17T17:27:24.318Z,3.78
2022-10-17T17:29:50.823Z,3.92
2022-10-17T17:32:17.333Z,4.47
2022-10-17T17:34:43.749Z,3.72
2022-10-17T17:37:10.172Z,4.07
2022-10-17T17:39:36.588Z,4.25
2022-10-17T17:42:03.193Z,4.13
2022-10-17T17:44:29.624Z,3.20
2022-10-17T17:46:56.134Z,3.20
2022-10-17T17:49:22.842Z,3.92
2022-10-17T17:51:49.354Z,4.43
2022-10-17T17:54:15.946Z,5.85
2022-10-17T17:56:42.457Z,8.65
2022-10-17T17:59:11.399Z,4.55
2022-10-17T18:01:38.991Z,3.42
2022-10-17T18:04:08.649Z,4.13
2022-10-17T18:06:36.501Z,4.13
2022-10-17T18:09:04.356Z,4.18
2022-10-17T18:11:31.071Z,4.55
2022-10-17T18:14:01.584Z,4.25
2022-10-17T18:16:29.301Z,4.30
2022-10-17T18:18:56.829Z,3.90
2022-10-17T18:21:23.846Z,4.40
2022-10-17T18:23:51.829Z,3.97
2022-10-17T18:26:19.129Z,4.32
2022-10-17T18:28:46.590Z,4.43
2022-10-17T18:31:19.743Z,3.83
2022-10-17T18:33:46.537Z,3.90
2022-10-17T18:36:15.564Z,3.38
2022-10-17T18:38:42.944Z,4.20
2022-10-17T18:41:15.910Z,4.03
2022-10-17T18:43:45.036Z,4.03
2022-10-17T18:46:14.932Z,3.47
2022-10-17T18:48:44.522Z,3.90
2022-10-17T18:51:12.499Z,3.92
2022-10-17T18:53:41.202Z,3.92
2022-10-17T18:56:08.712Z,3.92
2022-10-17T18:58:36.334Z,4.07
2022-10-17T19:01:04.533Z,3.72
2022-10-17T19:06:01.868Z,3.65
2022-10-17T19:08:28.429Z,3.63
2022-10-17T19:10:54.861Z,4.15
2022-10-17T19:13:21.747Z,4.30
2022-10-17T19:15:48.355Z,3.83
2022-10-17T19:18:14.782Z,4.35
2022-10-17T19:20:41.228Z,4.13
2022-10-17T19:23:13.522Z,4.43
2022-10-17T19:25:39.946Z,4.25
2022-10-17T19:28:06.420Z,3.97
2022-10-17T19:30:32.857Z,4.10
2022-10-17T19:32:59.339Z,4.47
2022-10-17T19:35:25.825Z,4.43
2022-10-17T19:37:52.329Z,3.95
2022-10-17T19:40:18.862Z,4.18
2022-10-17T19:42:45.292Z,4.18
2022-10-17T19:45:11.784Z,4.28
2022-10-17T19:47:39.497Z,5.20
2022-10-17T19:50:06.817Z,4.25
2022-10-17T19:52:33.602Z,4.07
2022-10-17T19:55:02.760Z,4.43
2022-10-17T19:57:29.200Z,4.53
2022-10-17T19:59:56.168Z,4.22
2022-10-17T20:02:22.844Z,4.00
2022-10-17T20:04:59.943Z,4.85
2022-10-17T20:07:33.030Z,4.40
2022-10-17T20:09:59.443Z,4.32
2022-10-17T20:12:25.872Z,4.38
2022-10-17T20:14:52.285Z,5.03
2022-10-17T20:17:18.718Z,4.45
2022-10-17T20:19:45.194Z,3.65
2022-10-17T20:22:11.613Z,4.07
2022-10-17T20:24:38.038Z,4.32
2022-10-17T20:27:04.460Z,4.22
2022-10-17T20:29:30.907Z,4.78
2022-10-17T20:31:57.690Z,3.97
2022-10-17T20:34:24.268Z,4.47
2022-10-17T20:36:50.687Z,3.90
2022-10-17T20:39:19.026Z,4.60
2022-10-17T20:41:45.745Z,3.90
2022-10-17T20:44:12.933Z,4.35
2022-10-17T20:47:00.668Z,3.97
2022-10-17T20:49:26.553Z,4.93
2022-10-17T20:51:52.966Z,6.43
2022-10-17T20:54:19.398Z,6.00
2022-10-17T20:56:45.789Z,5.43
2022-10-17T20:59:14.857Z,5.63
2022-10-17T21:01:41.394Z,5.70
2022-10-17T21:04:40.508Z,5.85
2022-10-17T21:06:55.000Z,5.70
2022-10-17T21:09:22.011Z,6.03
2022-10-17T21:11:51.362Z,6.15
2022-10-17T21:14:18.268Z,5.30
2022-10-17T21:16:44.898Z,4.65
2022-10-17T21:19:12.700Z,4.45
2022-10-17T21:21:41.366Z,4.70
2022-10-17T21:24:12.963Z,5.15
2022-10-17T21:26:42.446Z,4.90
2022-10-17T21:29:09.989Z,4.93
2022-10-17T21:31:37.912Z,4.88
2022-10-17T21:34:15.734Z,4.60
2022-10-17T21:36:42.616Z,4.82
2022-10-17T21:39:11.012Z,4.93
2022-10-17T21:41:37.869Z,4.50
2022-10-17T21:44:07.132Z,4.47
2022-10-17T21:46:34.144Z,4.95
2022-10-17T21:49:01.096Z,4.32
2022-10-17T21:51:28.447Z,4.40
2022-10-17T21:53:56.818Z,4.93
2022-10-17T21:56:28.050Z,4.53
2022-10-17T21:58:55.209Z,4.43
2022-10-17T22:01:25.966Z,4.75
2022-10-17T22:03:55.413Z,4.85
2022-10-17T22:06:39.301Z,4.75
2022-10-17T22:09:18.381Z,5.45
2022-10-17T22:11:47.307Z,5.28
2022-10-17T22:14:16.556Z,5.10
2022-10-17T22:16:45.261Z,5.70
2022-10-17T22:19:13.225Z,6.05
2022-10-17T22:21:40.106Z,4.30
2022-10-17T22:24:08.890Z,5.90
2022-10-17T22:26:37.185Z,4.40
2022-10-17T22:31:31.318Z,4.38
2022-10-17T22:33:57.770Z,4.63
2022-10-17T22:36:24.222Z,4.70
2022-10-17T22:38:51.059Z,4.72
2022-10-17T22:41:17.787Z,4.20
2022-10-17T22:43:44.337Z,4.75
2022-10-17T22:46:13.357Z,4.60
2022-10-17T22:48:40.299Z,4.38
2022-10-17T22:51:07.187Z,4.03
2022-10-17T22:53:35.130Z,4.00
2022-10-17T22:56:09.236Z,4.97
2022-10-17T22:58:35.883Z,4.93
2022-10-17T23:01:03.303Z,4.03
2022-10-17T23:03:31.161Z,4.40
2022-10-17T23:05:58.226Z,4.22
2022-10-17T23:08:25.678Z,3.85
2022-10-17T23:10:52.203Z,2.83
2022-10-17T23:13:19.814Z,3.78
2022-10-17T23:15:46.243Z,3.80
2022-10-17T23:18:12.882Z,3.30
2022-10-17T23:20:39.320Z,3.85
2022-10-17T23:23:06.586Z,4.15
2022-10-17T23:25:34.549Z,4.82
2022-10-17T23:28:01.355Z,4.40
2022-10-17T23:30:28.236Z,4.50
2022-10-17T23:32:54.741Z,5.30
2022-10-17T23:35:21.186Z,6.03
2022-10-17T23:37:47.582Z,6.22
2022-10-17T23:40:14.029Z,5.70
2022-10-17T23:42:40.445Z,5.53
2022-10-17T23:45:07.700Z,5.07
2022-10-17T23:47:34.259Z,4.80
2022-10-17T23:50:00.780Z,4.70
2022-10-17T23:52:27.326Z,4.60
2022-10-17T23:54:53.951Z,3.88
2022-10-17T23:57:20.515Z,4.00
2022-10-17T23:59:47.011Z,3.92
